createdAt,value
2022-11-23T00:02:01.931Z,139.02
2022-11-23T00:06:03.867Z,125.60
2022-11-23T00:10:06.454Z,135.45
2022-11-23T00:14:08.225Z,150.02
2022-11-23T00:18:10.258Z,153.27
2022-11-23T00:22:12.054Z,149.45
2022-11-23T00:26:15.082Z,151.30
2022-11-23T00:30:17.195Z,153.02
2022-11-23T00:34:19.161Z,133.73
2022-11-23T00:38:20.869Z,136.43
2022-11-23T00:42:24.337Z,134.02
2022-11-23T00:46:28.917Z,128.88
2022-11-23T00:50:32.599Z,127.47
2022-11-23T00:54:34.452Z,150.52
2022-11-23T00:58:39.500Z,134.00
2022-11-23T01:02:41.787Z,146.50
2022-11-23T01:06:44.257Z,154.90
2022-11-23T01:10:46.046Z,144.75
2022-11-23T01:14:48.208Z,139.50
2022-11-23T01:18:58.057Z,146.50
2022-11-23T01:23:00.030Z,140.18
2022-11-23T01:27:01.937Z,142.30
2022-11-23T01:31:09.422Z,137.27
2022-11-23T01:35:11.514Z,137.98
2022-11-23T01:39:13.920Z,141.93
2022-11-23T01:43:18.571Z,133.35
2022-11-23T01:47:20.688Z,142.02
2022-11-23T01:51:32.115Z,157.40
2022-11-23T01:55:35.361Z,148.52
2022-11-23T01:59:39.178Z,139.20
2022-11-23T02:03:48.232Z,141.43
2022-11-23T02:07:51.386Z,147.00
2022-11-23T02:11:53.606Z,119.35
2022-11-23T02:15:57.717Z,118.40
2022-11-23T02:20:10.239Z,124.72
2022-11-23T02:24:23.516Z,128.45
2022-11-23T02:28:31.497Z,122.13
2022-11-23T02:32:34.765Z,124.82
2022-11-23T02:36:39.888Z,137.55
2022-11-23T02:40:41.606Z,128.27
2022-11-23T02:45:02.472Z,137.10
2022-11-23T02:49:04.114Z,139.43
2022-11-23T02:53:06.044Z,140.32
2022-11-23T02:57:08.203Z,143.75
2022-11-23T03:01:10.240Z,135.02
2022-11-23T03:05:12.919Z,134.48
2022-11-23T03:09:15.260Z,130.70
2022-11-23T03:13:17.252Z,139.35
2022-11-23T03:17:18.997Z,132.43
2022-11-23T03:21:21.309Z,118.47
2022-11-23T03:25:22.988Z,130.32
2022-11-23T03:29:28.642Z,121.97
2022-11-23T03:33:32.770Z,110.07
2022-11-23T03:37:34.887Z,126.35
2022-11-23T03:41:37.195Z,107.57
2022-11-23T03:45:39.317Z,107.70
2022-11-23T03:49:40.926Z,102.35
2022-11-23T03:53:44.684Z,94.50
2022-11-23T03:57:48.142Z,100.28
2022-11-23T04:01:50.102Z,108.88
2022-11-23T04:06:00.430Z,88.53
2022-11-23T04:10:28.560Z,103.13
2022-11-23T04:14:39.138Z,102.40
2022-11-23T04:18:41.670Z,89.28
2022-11-23T04:22:43.839Z,84.22
2022-11-23T04:26:46.728Z,90.47
2022-11-23T04:30:49.750Z,82.15
2022-11-23T04:34:52.371Z,79.13
2022-11-23T04:38:54.417Z,75.70
2022-11-23T04:43:06.565Z,94.65
2022-11-23T04:47:11.730Z,92.80
2022-11-23T04:51:13.818Z,91.75
2022-11-23T04:55:17.049Z,84.07
2022-11-23T04:59:27.082Z,81.80
2022-11-23T05:03:29.112Z,80.88
2022-11-23T05:07:31.175Z,76.53
2022-11-23T05:11:37.303Z,77.25
2022-11-23T05:15:38.938Z,71.53
2022-11-23T05:19:41.421Z,74.85
2022-11-23T05:23:43.234Z,61.58
2022-11-23T05:27:45.268Z,67.53
2022-11-23T05:31:48.179Z,68.80
2022-11-23T05:35:50.148Z,60.45
2022-11-23T05:39:54.323Z,64.70
2022-11-23T05:43:57.594Z,72.97
2022-11-23T05:48:03.038Z,64.13
2022-11-23T05:52:18.833Z,72.03
2022-11-23T05:56:22.986Z,63.05
2022-11-23T06:00:40.312Z,62.40
2022-11-23T06:04:43.750Z,77.78
2022-11-23T06:08:50.231Z,68.85
2022-11-23T06:12:53.353Z,58.80
2022-11-23T06:16:57.550Z,63.22
2022-11-23T06:21:08.360Z,61.00
2022-11-23T06:25:10.511Z,55.53
2022-11-23T06:33:21.687Z,56.83
2022-11-23T06:37:25.731Z,52.58
2022-11-23T06:41:32.417Z,61.30
2022-11-23T06:45:36.145Z,70.20
2022-11-23T06:49:42.268Z,65.45
2022-11-23T06:53:52.834Z,64.78
2022-11-23T06:57:57.428Z,88.20
2022-11-23T07:01:59.243Z,66.28
2022-11-23T07:06:10.426Z,78.50
2022-11-23T07:10:13.630Z,84.93
2022-11-23T07:14:20.895Z,78.85
2022-11-23T07:18:26.303Z,73.50
2022-11-23T07:22:33.564Z,74.30
2022-11-23T07:26:35.231Z,75.40
2022-11-23T07:30:39.201Z,74.68
2022-11-23T07:34:41.259Z,74.18
2022-11-23T07:38:43.707Z,74.18
2022-11-23T07:42:47.638Z,75.75
2022-11-23T07:46:53.295Z,82.15
2022-11-23T07:50:55.460Z,69.10
2022-11-23T07:54:57.148Z,67.97
2022-11-23T07:58:59.236Z,71.05
2022-11-23T08:07:23.249Z,73.93
2022-11-23T08:11:25.386Z,60.95
2022-11-23T08:15:30.352Z,65.57
2022-11-23T08:19:37.586Z,50.92
2022-11-23T08:23:39.608Z,46.10
2022-11-23T08:27:41.457Z,51.15
2022-11-23T08:31:43.864Z,53.00
2022-11-23T08:35:45.710Z,48.03
2022-11-23T08:39:47.711Z,45.13
2022-11-23T08:43:51.029Z,53.22
2022-11-23T08:47:54.113Z,45.88
2022-11-23T08:51:55.850Z,50.22
2022-11-23T08:56:01.401Z,47.60
2022-11-23T09:00:05.101Z,38.67
2022-11-23T09:04:07.287Z,48.13
2022-11-23T09:08:09.080Z,40.42
2022-11-23T09:12:11.102Z,42.42
2022-11-23T09:16:12.785Z,41.10
2022-11-23T09:20:14.947Z,40.88
2022-11-23T09:24:16.972Z,45.70
2022-11-23T09:28:24.405Z,35.50
2022-11-23T09:32:26.654Z,35.60
2022-11-23T09:36:28.780Z,41.28
2022-11-23T09:40:35.962Z,43.63
2022-11-23T09:44:40.886Z,43.07
2022-11-23T09:48:48.684Z,44.20
2022-11-23T09:52:51.623Z,48.80
2022-11-23T09:57:01.401Z,45.88
2022-11-23T10:01:11.257Z,46.92
2022-11-23T10:05:22.776Z,43.45
2022-11-23T10:09:45.698Z,40.78
2022-11-23T10:14:16.087Z,40.17
2022-11-23T10:19:12.719Z,46.67
2022-11-23T10:23:26.497Z,42.75
2022-11-23T10:27:29.676Z,41.80
2022-11-23T10:31:31.733Z,45.92
2022-11-23T10:35:35.287Z,49.50
2022-11-23T10:39:37.525Z,50.03
2022-11-23T10:43:46.255Z,56.28
2022-11-23T10:47:50.068Z,49.25
2022-11-23T10:51:54.916Z,56.38
2022-11-23T10:55:59.743Z,64.53
2022-11-23T11:00:10.801Z,51.80
2022-11-23T11:04:23.139Z,49.50
2022-11-23T11:08:30.041Z,46.30
2022-11-23T11:12:35.567Z,46.92
2022-11-23T11:16:38.058Z,60.72
2022-11-23T11:20:40.029Z,58.70
2022-11-23T11:24:47.352Z,54.40
2022-11-23T11:28:51.716Z,51.92
2022-11-23T11:33:14.896Z,56.38
2022-11-23T11:37:36.774Z,56.95
2022-11-23T11:41:40.035Z,52.33
2022-11-23T11:46:34.403Z,49.40
2022-11-23T11:50:39.020Z,56.75
2022-11-23T11:55:07.885Z,59.90
2022-11-23T11:59:31.474Z,60.97
2022-11-23T12:03:42.701Z,60.50
2022-11-23T12:08:06.539Z,55.60
2022-11-23T12:12:16.271Z,62.25
2022-11-23T12:16:34.140Z,62.58
2022-11-23T12:21:18.219Z,67.00
2022-11-23T12:25:36.887Z,67.45
2022-11-23T12:29:57.529Z,71.25
2022-11-23T12:34:21.566Z,69.75
2022-11-23T12:38:30.496Z,68.18
2022-11-23T12:42:44.557Z,72.60
2022-11-23T12:46:59.085Z,66.32
2022-11-23T12:51:33.924Z,69.32
2022-11-23T12:55:56.648Z,75.32
2022-11-23T13:00:05.578Z,80.57
2022-11-23T13:04:45.413Z,73.05
2022-11-23T13:09:25.215Z,69.97
2022-11-23T13:13:48.780Z,89.65
2022-11-23T13:18:13.863Z,65.65
2022-11-23T13:22:19.944Z,72.80
2022-11-23T13:26:24.529Z,71.70
2022-11-23T13:35:03.780Z,92.22
2022-11-23T13:39:43.939Z,92.32
2022-11-23T13:43:46.546Z,97.88
2022-11-23T13:48:07.105Z,93.22
2022-11-23T13:52:20.966Z,104.78
2022-11-23T13:56:27.105Z,100.85
2022-11-23T14:00:48.728Z,99.05
2022-11-23T14:04:51.250Z,95.57
2022-11-23T14:09:04.385Z,104.20
2022-11-23T14:13:19.193Z,102.38
2022-11-23T14:17:52.402Z,101.97
2022-11-23T14:22:26.543Z,110.25
2022-11-23T14:26:41.561Z,119.13
2022-11-23T14:31:06.398Z,117.30
2022-11-23T14:35:08.101Z,102.38
2022-11-23T14:39:38.002Z,128.07
2022-11-23T14:43:42.683Z,131.73
2022-11-23T14:47:44.667Z,130.32
2022-11-23T14:51:47.017Z,124.72
2022-11-23T14:55:50.215Z,118.57
2022-11-23T14:59:56.114Z,126.03
2022-11-23T15:04:23.192Z,131.60
2022-11-23T15:08:32.081Z,117.72
2022-11-23T15:12:47.301Z,128.18
2022-11-23T15:16:49.568Z,122.78
2022-11-23T15:20:51.354Z,128.95
2022-11-23T15:24:54.074Z,124.65
2022-11-23T15:28:56.208Z,116.18
2022-11-23T15:33:08.861Z,135.15
2022-11-23T15:37:11.161Z,120.32
2022-11-23T15:41:13.471Z,111.43
2022-11-23T15:45:37.429Z,115.05
2022-11-23T15:49:40.829Z,102.20
2022-11-23T15:53:49.643Z,111.25
2022-11-23T15:57:54.320Z,116.55
2022-11-23T16:01:56.549Z,131.82
2022-11-23T16:06:13.827Z,110.55
2022-11-23T16:10:22.537Z,136.20
2022-11-23T16:14:31.904Z,151.10
2022-11-23T16:18:34.253Z,124.45
2022-11-23T16:22:40.439Z,126.95
2022-11-23T16:26:43.885Z,106.47
2022-11-23T16:30:48.567Z,113.10
2022-11-23T16:34:50.881Z,134.23
2022-11-23T16:38:52.751Z,128.30
2022-11-23T16:42:54.413Z,115.25
2022-11-23T16:47:19.873Z,127.95
2022-11-23T16:51:21.523Z,131.43
2022-11-23T16:55:23.563Z,124.75
2022-11-23T16:59:25.909Z,118.30
2022-11-23T17:03:28.229Z,110.57
2022-11-23T17:07:30.242Z,114.05
2022-11-23T17:11:32.299Z,88.03
2022-11-23T17:15:33.876Z,97.63
2022-11-23T17:19:36.008Z,94.25
2022-11-23T17:23:42.703Z,105.03
2022-11-23T17:27:46.357Z,96.72
2022-11-23T17:31:49.485Z,97.28
2022-11-23T17:35:56.234Z,100.85
2022-11-23T17:39:57.955Z,87.55
2022-11-23T17:44:00.282Z,90.80
2022-11-23T17:48:03.689Z,91.85
2022-11-23T17:52:06.151Z,91.18
2022-11-23T17:56:16.973Z,89.45
2022-11-23T18:00:21.580Z,94.93
2022-11-23T18:04:23.672Z,99.32
2022-11-23T18:08:25.713Z,92.10
2022-11-23T18:12:27.583Z,91.82
2022-11-23T18:16:29.760Z,95.20
2022-11-23T18:20:31.580Z,110.22
2022-11-23T18:24:33.718Z,102.18
2022-11-23T18:28:35.688Z,92.20
2022-11-23T18:32:37.787Z,98.50
2022-11-23T18:36:39.648Z,104.20
2022-11-23T18:40:41.814Z,97.63
2022-11-23T18:44:43.485Z,104.38
2022-11-23T18:48:47.133Z,96.63
2022-11-23T18:52:48.832Z,94.45
2022-11-23T18:56:50.882Z,105.05
2022-11-23T19:00:52.804Z,105.82
2022-11-23T19:04:54.852Z,115.38
2022-11-23T19:08:57.483Z,109.45
2022-11-23T19:13:05.189Z,113.63
2022-11-23T19:17:07.423Z,113.00
2022-11-23T19:21:16.684Z,109.18
2022-11-23T19:25:19.359Z,107.05
2022-11-23T19:29:24.810Z,110.13
2022-11-23T19:33:29.238Z,108.80
2022-11-23T19:37:31.377Z,121.25
2022-11-23T19:41:33.301Z,110.43
2022-11-23T19:45:35.563Z,134.80
2022-11-23T19:49:37.464Z,107.63
2022-11-23T19:53:40.632Z,101.68
2022-11-23T19:57:42.312Z,103.50
2022-11-23T20:01:44.595Z,96.78
2022-11-23T20:05:56.379Z,102.60
2022-11-23T20:09:58.454Z,99.47
2022-11-23T20:14:01.555Z,109.55
2022-11-23T20:18:03.969Z,126.45
2022-11-23T20:22:05.721Z,127.63
2022-11-23T20:26:09.101Z,124.68
2022-11-23T20:30:11.357Z,108.40
2022-11-23T20:34:19.830Z,96.15
2022-11-23T20:38:23.125Z,94.57
2022-11-23T20:42:25.199Z,99.20
2022-11-23T20:46:59.866Z,103.57
2022-11-23T20:50:51.340Z,100.30
2022-11-23T20:54:53.419Z,91.20
2022-11-23T20:58:57.234Z,84.68
2022-11-23T21:02:59.172Z,81.75
2022-11-23T21:07:01.635Z,92.53
2022-11-23T21:11:26.081Z,83.07
2022-11-23T21:15:28.571Z,77.65
2022-11-23T21:19:32.922Z,83.72
2022-11-23T21:23:36.204Z,79.85
2022-11-23T21:27:38.166Z,76.90
2022-11-23T21:31:42.751Z,79.78
2022-11-23T21:35:44.567Z,77.13
2022-11-23T21:39:52.723Z,73.60
2022-11-23T21:47:57.050Z,82.40
2022-11-23T21:51:59.119Z,87.43
2022-11-23T21:56:05.694Z,91.75
2022-11-23T22:00:08.369Z,85.65
2022-11-23T22:04:15.814Z,88.90
2022-11-23T22:08:33.100Z,92.07
2022-11-23T22:12:35.073Z,79.80
2022-11-23T22:16:41.422Z,90.07
2022-11-23T22:20:43.713Z,92.03
2022-11-23T22:24:45.291Z,86.28
2022-11-23T22:28:51.287Z,73.72
2022-11-23T22:32:53.034Z,85.72
2022-11-23T22:36:55.313Z,86.22
2022-11-23T22:40:57.171Z,77.28
2022-11-23T22:44:59.384Z,77.57
2022-11-23T22:49:01.895Z,70.55
2022-11-23T22:53:04.108Z,82.00
2022-11-23T22:57:05.889Z,76.07
2022-11-23T23:01:13.734Z,74.93
2022-11-23T23:05:15.501Z,74.95
2022-11-23T23:09:17.794Z,78.57
2022-11-23T23:13:20.195Z,79.55
2022-11-23T23:17:22.434Z,77.43
2022-11-23T23:21:25.397Z,78.00
2022-11-23T23:25:27.601Z,75.72
2022-11-23T23:29:29.744Z,74.03
2022-11-23T23:33:33.375Z,74.93
2022-11-23T23:37:35.165Z,80.88
2022-11-23T23:41:37.220Z,85.38
2022-11-23T23:45:38.903Z,72.57
2022-11-23T23:49:40.888Z,76.72
2022-11-23T23:53:43.685Z,65.45
2022-11-23T23:57:45.656Z,67.78
